createdAt,value
2019-04-11T00:02:04.663Z,82.70
2019-04-11T00:04:37.911Z,82.10
2019-04-11T00:07:08.609Z,82.10
2019-04-11T00:09:39.285Z,82.20
2019-04-11T00:12:10.927Z,82.00
2019-04-11T00:14:42.161Z,82.20
2019-04-11T00:17:13.834Z,82.00
2019-04-11T00:19:45.394Z,82.00
2019-04-11T00:22:16.020Z,81.70
2019-04-11T00:24:47.195Z,82.50
2019-04-11T00:27:17.736Z,82.70
2019-04-11T00:29:48.202Z,82.30
2019-04-11T00:32:19.159Z,82.50
2019-04-11T00:34:49.650Z,82.80
2019-04-11T00:37:21.087Z,83.10
2019-04-11T00:39:52.120Z,83.00
2019-04-11T00:42:22.871Z,83.30
2019-04-11T00:44:53.886Z,83.00
2019-04-11T00:47:25.328Z,82.70
2019-04-11T00:49:56.838Z,82.00
2019-04-11T00:52:27.515Z,82.40
2019-04-11T00:54:58.022Z,81.90
2019-04-11T00:57:28.616Z,81.80
2019-04-11T00:59:59.168Z,82.50
2019-04-11T01:02:29.773Z,82.00
2019-04-11T01:05:01.276Z,82.70
2019-04-11T01:07:33.109Z,82.70
2019-04-11T01:10:06.580Z,82.90
2019-04-11T01:12:37.178Z,83.90
2019-04-11T01:15:09.456Z,83.50
2019-04-11T01:17:39.935Z,82.80
2019-04-11T01:20:11.318Z,82.60
2019-04-11T01:22:42.435Z,82.60
2019-04-11T01:25:13.322Z,82.90
2019-04-11T01:27:44.277Z,82.80
2019-04-11T01:30:17.006Z,81.90
2019-04-11T01:32:48.618Z,82.30
2019-04-11T01:35:19.343Z,82.60
2019-04-11T01:37:50.245Z,82.70
2019-04-11T01:40:21.366Z,82.80
2019-04-11T01:42:51.896Z,82.90
2019-04-11T01:45:23.840Z,82.30
2019-04-11T01:47:59.453Z,81.70
2019-04-11T01:50:32.866Z,80.90
2019-04-11T01:53:03.679Z,80.90
2019-04-11T01:55:34.749Z,81.10
2019-04-11T01:58:06.539Z,81.40
2019-04-11T02:00:39.925Z,81.50
2019-04-11T02:03:12.437Z,81.60
2019-04-11T02:05:43.309Z,81.60
2019-04-11T02:08:13.892Z,81.80
2019-04-11T02:10:45.300Z,82.00
2019-04-11T02:13:16.005Z,81.40
2019-04-11T02:15:46.475Z,81.30
2019-04-11T02:18:17.244Z,81.50
2019-04-11T02:20:47.845Z,80.80
2019-04-11T02:23:35.145Z,80.00
2019-04-11T02:26:23.558Z,80.80
2019-04-11T02:28:55.107Z,80.50
2019-04-11T02:31:26.436Z,80.40
2019-04-11T02:33:57.449Z,81.20
2019-04-11T02:36:30.062Z,81.50
2019-04-11T02:39:05.760Z,82.10
2019-04-11T02:41:35.046Z,82.30
2019-04-11T02:44:07.303Z,82.70
2019-04-11T02:46:47.489Z,82.90
2019-04-11T02:49:11.557Z,82.50
2019-04-11T02:51:43.026Z,82.00
2019-04-11T02:54:15.756Z,82.60
2019-04-11T02:56:48.793Z,84.50
2019-04-11T02:59:19.606Z,83.90
2019-04-11T03:01:50.999Z,84.10
2019-04-11T03:04:24.243Z,84.50
2019-04-11T03:06:55.329Z,85.60
2019-04-11T03:09:26.904Z,86.50
2019-04-11T03:11:59.084Z,86.80
2019-04-11T03:14:47.717Z,87.40
2019-04-11T03:17:14.026Z,87.80
2019-04-11T03:19:47.729Z,88.10
2019-04-11T03:22:08.108Z,88.50
2019-04-11T03:24:40.612Z,88.80
2019-04-11T03:27:12.026Z,89.20
2019-04-11T03:29:43.202Z,89.80
2019-04-11T03:33:14.857Z,89.30
2019-04-11T03:37:47.757Z,90.10
2019-04-11T03:40:15.130Z,90.00
2019-04-11T03:42:38.214Z,90.00
2019-04-11T03:45:22.681Z,90.10
2019-04-11T03:47:40.107Z,90.40
2019-04-11T03:50:08.396Z,90.80
2019-04-11T03:52:38.051Z,90.50
2019-04-11T03:55:09.049Z,90.20
2019-04-11T03:57:42.222Z,89.80
2019-04-11T04:00:15.402Z,89.80
2019-04-11T04:02:46.747Z,89.80
2019-04-11T04:05:18.271Z,90.00
2019-04-11T04:07:49.429Z,90.00
2019-04-11T04:10:23.428Z,90.30
2019-04-11T04:12:55.942Z,90.20
2019-04-11T04:15:55.783Z,90.20
2019-04-11T04:18:23.681Z,87.50
2019-04-11T04:21:06.403Z,88.70
2019-04-11T04:23:38.553Z,87.10
2019-04-11T04:26:11.565Z,85.70
2019-04-11T04:28:42.782Z,83.80
2019-04-11T04:31:13.978Z,83.50
2019-04-11T04:33:45.578Z,83.30
2019-04-11T04:36:18.246Z,82.10
2019-04-11T04:38:49.397Z,81.90
2019-04-11T04:41:30.997Z,82.30
2019-04-11T04:43:54.679Z,82.50
2019-04-11T04:46:39.517Z,82.30
2019-04-11T04:48:59.109Z,82.30
2019-04-11T04:51:31.175Z,81.10
2019-04-11T04:54:03.639Z,81.20
2019-04-11T04:56:34.917Z,81.60
2019-04-11T04:59:07.080Z,81.70
2019-04-11T05:01:39.339Z,81.20
2019-04-11T05:04:11.447Z,81.70
2019-04-11T05:06:46.743Z,82.00
2019-04-11T05:09:14.762Z,81.90
2019-04-11T05:11:46.526Z,81.80
2019-04-11T05:14:18.751Z,81.50
2019-04-11T05:16:50.450Z,79.80
2019-04-11T05:19:22.099Z,80.70
2019-04-11T05:21:54.092Z,79.70
2019-04-11T05:24:26.461Z,80.10
2019-04-11T05:26:57.890Z,79.50
2019-04-11T05:29:29.255Z,79.10
2019-04-11T05:31:59.821Z,79.70
2019-04-11T05:34:30.291Z,79.40
2019-04-11T05:37:01.816Z,79.20
2019-04-11T05:39:33.889Z,79.40
2019-04-11T05:42:05.084Z,80.80
2019-04-11T05:44:38.204Z,79.20
2019-04-11T05:47:09.009Z,79.50
2019-04-11T05:49:42.439Z,78.50
2019-04-11T05:52:13.438Z,77.70
2019-04-11T05:54:47.965Z,77.30
2019-04-11T05:57:21.313Z,78.10
2019-04-11T05:59:53.126Z,78.00
2019-04-11T06:02:35.591Z,77.90
2019-04-11T06:05:15.216Z,77.30
2019-04-11T06:07:59.989Z,76.90
2019-04-11T06:10:30.373Z,79.30
2019-04-11T06:13:03.069Z,78.10
2019-04-11T06:15:38.766Z,76.60
2019-04-11T06:18:10.355Z,76.60
2019-04-11T06:20:51.567Z,76.50
2019-04-11T06:23:35.488Z,74.10
2019-04-11T06:26:14.714Z,75.80
2019-04-11T06:28:45.293Z,75.00
2019-04-11T06:31:16.019Z,75.10
2019-04-11T06:33:49.109Z,75.30
2019-04-11T06:36:30.186Z,75.00
2019-04-11T06:39:17.361Z,74.80
2019-04-11T06:41:50.575Z,75.30
2019-04-11T06:44:21.649Z,74.30
2019-04-11T06:46:57.416Z,73.50
2019-04-11T06:49:39.809Z,72.80
2019-04-11T06:52:12.743Z,72.90
2019-04-11T06:54:56.804Z,72.20
2019-04-11T06:57:34.288Z,72.40
2019-04-11T07:00:10.640Z,73.10
2019-04-11T07:02:55.081Z,74.00
2019-04-11T07:05:28.850Z,74.50
2019-04-11T07:08:03.767Z,72.60
2019-04-11T07:10:36.231Z,72.30
2019-04-11T07:13:08.675Z,72.80
2019-04-11T07:15:40.799Z,73.00
2019-04-11T07:18:29.427Z,74.20
2019-04-11T07:21:02.742Z,73.40
2019-04-11T07:23:51.673Z,72.80
2019-04-11T07:26:25.113Z,72.90
2019-04-11T07:29:04.664Z,72.30
2019-04-11T07:31:46.239Z,72.30
2019-04-11T07:34:36.185Z,71.30
2019-04-11T07:37:15.030Z,72.00
2019-04-11T07:40:03.405Z,72.40
2019-04-11T07:42:41.265Z,71.30
2019-04-11T07:45:14.541Z,70.80
2019-04-11T07:47:55.140Z,71.00
2019-04-11T07:50:26.234Z,71.50
2019-04-11T07:52:58.761Z,71.00
2019-04-11T07:55:30.040Z,71.50
2019-04-11T07:58:19.404Z,70.60
2019-04-11T08:00:54.292Z,71.50
2019-04-11T08:03:38.243Z,70.90
2019-04-11T08:06:16.243Z,71.40
2019-04-11T08:08:49.431Z,70.00
2019-04-11T08:11:23.339Z,70.70
2019-04-11T08:14:12.536Z,70.30
2019-04-11T08:19:57.462Z,70.90
2019-04-11T08:22:32.935Z,71.60
2019-04-11T08:25:18.112Z,71.10
2019-04-11T08:28:00.673Z,70.40
2019-04-11T08:30:28.760Z,70.80
2019-04-11T08:33:00.876Z,70.10
2019-04-11T08:35:36.851Z,69.50
2019-04-11T08:38:18.458Z,69.70
2019-04-11T08:41:05.821Z,69.30
2019-04-11T08:43:37.502Z,70.30
2019-04-11T08:46:15.014Z,71.30
2019-04-11T08:48:57.284Z,71.20
2019-04-11T08:51:29.594Z,69.80
2019-04-11T08:54:13.813Z,69.50
2019-04-11T08:56:45.393Z,69.10
2019-04-11T08:59:35.999Z,69.80
2019-04-11T09:02:06.934Z,69.00
2019-04-11T09:04:39.687Z,67.90
2019-04-11T09:07:13.584Z,67.90
2019-04-11T09:09:45.437Z,68.30
2019-04-11T09:12:16.352Z,70.10
2019-04-11T09:14:51.175Z,69.30
2019-04-11T09:17:23.710Z,68.30
2019-04-11T09:19:54.994Z,67.50
2019-04-11T09:22:41.480Z,67.50
2019-04-11T09:25:14.817Z,67.90
2019-04-11T09:27:48.897Z,67.00
2019-04-11T09:30:25.075Z,65.70
2019-04-11T09:33:13.487Z,67.20
2019-04-11T09:35:43.809Z,66.90
2019-04-11T09:38:16.034Z,70.20
2019-04-11T09:40:52.152Z,68.60
2019-04-11T09:43:24.424Z,66.70
2019-04-11T09:45:57.609Z,66.80
2019-04-11T09:48:46.314Z,65.70
2019-04-11T09:51:29.543Z,65.50
2019-04-11T09:54:01.919Z,65.80
2019-04-11T09:56:51.662Z,68.10
2019-04-11T09:59:36.963Z,66.70
2019-04-11T10:02:25.533Z,65.20
2019-04-11T10:04:59.924Z,65.60
2019-04-11T10:07:35.608Z,66.00
2019-04-11T10:10:12.834Z,65.30
2019-04-11T10:13:02.573Z,65.90
2019-04-11T10:15:37.592Z,66.50
2019-04-11T10:18:30.975Z,66.00
2019-04-11T10:20:59.246Z,68.10
2019-04-11T10:23:47.705Z,66.20
2019-04-11T10:26:18.190Z,65.80
2019-04-11T10:29:06.751Z,67.00
2019-04-11T10:31:38.961Z,65.50
2019-04-11T10:34:13.737Z,66.00
2019-04-11T10:36:46.028Z,67.00
2019-04-11T10:39:21.545Z,66.20
2019-04-11T10:41:55.961Z,66.20
2019-04-11T10:44:29.818Z,66.50
2019-04-11T10:47:07.243Z,65.90
2019-04-11T10:49:54.801Z,67.00
2019-04-11T10:52:26.939Z,66.90
2019-04-11T10:55:05.213Z,65.80
2019-04-11T10:57:38.249Z,65.40
2019-04-11T11:00:11.158Z,66.10
2019-04-11T11:03:03.975Z,66.40
2019-04-11T11:05:40.137Z,66.50
2019-04-11T11:08:18.004Z,67.30
2019-04-11T11:10:50.062Z,66.40
2019-04-11T11:13:39.623Z,66.50
2019-04-11T11:16:11.880Z,66.80
2019-04-11T11:19:16.380Z,67.40
2019-04-11T11:21:17.652Z,66.80
2019-04-11T11:24:07.692Z,66.30
2019-04-11T11:26:39.059Z,67.30
2019-04-11T11:29:21.196Z,67.80
2019-04-11T11:31:54.542Z,68.40
2019-04-11T11:34:32.789Z,67.70
2019-04-11T11:37:07.388Z,67.90
2019-04-11T11:39:39.591Z,68.60
2019-04-11T11:42:24.090Z,68.80
2019-04-11T11:44:59.388Z,69.70
2019-04-11T11:47:53.150Z,69.80
2019-04-11T11:50:26.647Z,71.40
2019-04-11T11:53:16.377Z,73.60
2019-04-11T11:55:49.465Z,73.20
2019-04-11T11:58:26.016Z,72.30
2019-04-11T12:01:01.183Z,74.10
2019-04-11T12:03:47.174Z,74.70
2019-04-11T12:06:22.319Z,74.40
2019-04-11T12:09:09.924Z,76.60
2019-04-11T12:11:42.246Z,76.70
2019-04-11T12:14:30.437Z,76.20
2019-04-11T12:17:08.451Z,77.20
2019-04-11T12:19:51.149Z,76.90
2019-04-11T12:22:16.526Z,77.20
2019-04-11T12:24:54.417Z,75.40
2019-04-11T12:27:40.026Z,75.40
2019-04-11T12:30:20.994Z,75.80
2019-04-11T12:32:59.239Z,75.00
2019-04-11T12:35:32.638Z,74.40
2019-04-11T12:38:07.484Z,74.40
2019-04-11T12:40:58.648Z,73.50
2019-04-11T12:43:30.796Z,72.00
2019-04-11T12:46:21.327Z,71.60
2019-04-11T12:48:51.173Z,70.30
2019-04-11T12:51:29.001Z,67.40
2019-04-11T12:54:02.869Z,65.70
2019-04-11T12:56:52.639Z,65.60
2019-04-11T12:59:23.353Z,63.00
2019-04-11T13:02:12.115Z,63.30
2019-04-11T13:04:44.977Z,62.10
2019-04-11T13:07:26.365Z,61.60
2019-04-11T13:09:58.699Z,59.40
2019-04-11T13:12:30.927Z,57.70
2019-04-11T13:15:19.125Z,56.90
2019-04-11T13:17:51.266Z,56.30
2019-04-11T13:20:39.524Z,56.40
2019-04-11T13:23:11.719Z,56.30
2019-04-11T13:25:45.540Z,56.40
2019-04-11T13:28:16.693Z,56.80
2019-04-11T13:30:46.975Z,56.50
2019-04-11T13:33:19.089Z,57.10
2019-04-11T13:36:09.403Z,56.70
2019-04-11T13:38:40.087Z,57.10
2019-04-11T13:41:29.037Z,56.30
2019-04-11T13:44:02.300Z,55.50
2019-04-11T13:46:33.222Z,55.40
2019-04-11T13:49:17.956Z,55.10
2019-04-11T13:52:07.648Z,53.00
2019-04-11T13:54:45.252Z,54.20
2019-04-11T13:57:17.402Z,54.30
2019-04-11T13:59:52.478Z,55.50
2019-04-11T14:02:24.617Z,55.50
2019-04-11T14:04:56.746Z,54.60
2019-04-11T14:07:29.943Z,53.50
2019-04-11T14:10:02.448Z,52.70
2019-04-11T14:12:34.677Z,53.00
2019-04-11T14:15:11.956Z,53.20
2019-04-11T14:17:48.402Z,52.50
2019-04-11T14:20:29.598Z,52.60
2019-04-11T14:23:01.466Z,52.30
2019-04-11T14:25:38.045Z,50.70
2019-04-11T14:28:10.187Z,50.80
2019-04-11T14:30:40.506Z,50.60
2019-04-11T14:33:11.062Z,50.40
2019-04-11T14:35:46.787Z,49.30
2019-04-11T14:38:18.927Z,49.00
2019-04-11T14:41:01.166Z,49.70
2019-04-11T14:43:25.818Z,50.10
2019-04-11T14:45:58.002Z,50.00
2019-04-11T14:48:42.280Z,51.00
2019-04-11T14:51:27.687Z,51.50
2019-04-11T14:54:08.696Z,51.40
2019-04-11T14:56:47.803Z,51.40
2019-04-11T14:59:23.961Z,51.00
2019-04-11T15:01:54.714Z,51.80
2019-04-11T15:04:30.936Z,51.90
2019-04-11T15:07:03.113Z,51.60
2019-04-11T15:09:39.539Z,51.00
2019-04-11T15:12:17.549Z,51.30
2019-04-11T15:15:04.444Z,51.80
2019-04-11T15:17:36.572Z,51.70
2019-04-11T15:20:25.540Z,51.80
2019-04-11T15:23:06.869Z,52.40
2019-04-11T15:25:38.563Z,52.10
2019-04-11T15:28:12.603Z,53.00
2019-04-11T15:30:54.751Z,52.50
2019-04-11T15:33:43.462Z,53.70
2019-04-11T15:36:15.567Z,52.90
2019-04-11T15:38:54.572Z,52.80
2019-04-11T15:41:27.187Z,53.00
2019-04-11T15:44:15.144Z,53.50
2019-04-11T15:46:47.768Z,53.10
2019-04-11T15:49:35.240Z,53.60
2019-04-11T15:52:07.640Z,54.00
2019-04-11T15:54:39.788Z,54.10
2019-04-11T15:57:12.739Z,54.40
2019-04-11T15:59:44.131Z,54.70
2019-04-11T16:02:16.769Z,54.20
2019-04-11T16:04:47.058Z,54.50
2019-04-11T16:07:23.205Z,55.10
2019-04-11T16:09:54.685Z,54.30
2019-04-11T16:12:32.760Z,54.10
2019-04-11T16:15:13.805Z,54.70
2019-04-11T16:18:02.530Z,55.40
2019-04-11T16:20:33.107Z,55.50
2019-04-11T16:23:11.204Z,55.90
2019-04-11T16:25:43.028Z,56.30
2019-04-11T16:28:20.964Z,56.00
2019-04-11T16:30:56.130Z,57.00
2019-04-11T16:33:31.184Z,57.30
2019-04-11T16:36:19.319Z,57.80
2019-04-11T16:38:52.758Z,58.30
2019-04-11T16:41:24.982Z,58.30
2019-04-11T16:43:58.837Z,58.40
2019-04-11T16:46:31.823Z,58.80
2019-04-11T16:49:02.291Z,59.20
2019-04-11T16:51:32.806Z,59.40
2019-04-11T16:54:03.295Z,59.10
2019-04-11T16:56:33.796Z,59.20
2019-04-11T16:59:04.476Z,59.50
2019-04-11T17:01:34.992Z,60.10
2019-04-11T17:04:05.516Z,60.20
2019-04-11T17:06:49.595Z,60.70
2019-04-11T17:09:26.671Z,61.10
2019-04-11T17:11:59.916Z,61.00
2019-04-11T17:14:33.056Z,61.60
2019-04-11T17:17:14.258Z,62.40
2019-04-11T17:19:36.139Z,62.30
2019-04-11T17:22:08.295Z,62.60
2019-04-11T17:24:39.558Z,62.70
2019-04-11T17:27:11.604Z,63.00
2019-04-11T17:29:42.082Z,63.50
2019-04-11T17:32:13.990Z,63.80
2019-04-11T17:34:44.545Z,65.30
2019-04-11T17:37:15.034Z,66.00
2019-04-11T17:39:46.960Z,66.00
2019-04-11T17:42:18.989Z,66.70
2019-04-11T17:44:49.483Z,66.50
2019-04-11T17:47:19.967Z,67.20
2019-04-11T17:49:50.443Z,67.30
2019-04-11T17:52:20.949Z,67.60
2019-04-11T17:54:51.966Z,67.90
2019-04-11T17:57:26.683Z,68.40
2019-04-11T17:59:59.114Z,68.40
2019-04-11T18:02:30.346Z,68.60
2019-04-11T18:05:00.848Z,69.30
2019-04-11T18:07:31.345Z,68.60
2019-04-11T18:10:01.803Z,69.10
2019-04-11T18:12:32.294Z,69.20
2019-04-11T18:15:03.046Z,69.40
2019-04-11T18:17:34.973Z,69.40
2019-04-11T18:20:09.236Z,69.40
2019-04-11T18:22:40.335Z,70.10
2019-04-11T18:25:10.942Z,70.70
2019-04-11T18:27:41.423Z,70.40
2019-04-11T18:30:13.869Z,70.40
2019-04-11T18:32:44.438Z,70.80
2019-04-11T18:35:15.002Z,71.60
2019-04-11T18:37:48.545Z,72.10
2019-04-11T18:40:19.236Z,72.20
2019-04-11T18:42:51.335Z,72.00
2019-04-11T18:45:21.882Z,71.80
2019-04-11T18:47:52.377Z,72.00
2019-04-11T18:50:23.508Z,72.40
2019-04-11T18:52:59.307Z,72.20
2019-04-11T18:55:27.493Z,72.70
2019-04-11T18:57:57.974Z,73.10
2019-04-11T19:00:30.008Z,73.40
2019-04-11T19:03:00.526Z,73.70
2019-04-11T19:05:31.238Z,73.90
2019-04-11T19:08:01.739Z,74.20
2019-04-11T19:10:32.451Z,74.20
2019-04-11T19:13:03.030Z,74.50
2019-04-11T19:15:33.566Z,74.40
2019-04-11T19:18:06.743Z,74.10
2019-04-11T19:20:37.687Z,74.70
2019-04-11T19:23:08.603Z,75.30
2019-04-11T19:25:44.357Z,75.40
2019-04-11T19:28:11.399Z,75.40
2019-04-11T19:30:42.496Z,75.60
2019-04-11T19:33:13.582Z,75.40
2019-04-11T19:35:44.160Z,75.70
2019-04-11T19:38:28.271Z,76.00
2019-04-11T19:40:58.765Z,75.90
2019-04-11T19:43:30.303Z,76.20
2019-04-11T19:46:00.772Z,76.20
2019-04-11T19:48:35.526Z,76.20
2019-04-11T19:51:05.981Z,76.30
2019-04-11T19:53:36.437Z,76.40
2019-04-11T19:56:08.576Z,76.60
2019-04-11T19:58:39.067Z,76.90
2019-04-11T20:01:09.573Z,76.80
2019-04-11T20:03:40.140Z,77.00
2019-04-11T20:06:13.117Z,77.00
2019-04-11T20:08:42.805Z,77.50
2019-04-11T20:11:13.320Z,77.50
2019-04-11T20:13:43.785Z,77.60
2019-04-11T20:16:14.283Z,77.70
2019-04-11T20:18:51.046Z,77.40
2019-04-11T20:21:18.922Z,77.60
2019-04-11T20:23:49.462Z,77.50
2019-04-11T20:26:21.262Z,77.80
2019-04-11T20:28:51.765Z,77.50
2019-04-11T20:31:22.219Z,77.20
2019-04-11T20:33:52.749Z,77.50
2019-04-11T20:36:32.822Z,77.70
2019-04-11T20:38:55.521Z,77.40
2019-04-11T20:41:26.095Z,77.40
2019-04-11T20:43:57.206Z,77.50
2019-04-11T20:46:29.205Z,77.60
2019-04-11T20:49:00.277Z,77.40
2019-04-11T20:51:30.793Z,77.40
2019-04-11T20:54:02.085Z,77.60
2019-04-11T20:56:34.233Z,77.90
2019-04-11T20:59:04.730Z,77.70
2019-04-11T21:01:36.620Z,77.80
2019-04-11T21:04:07.118Z,77.70
2019-04-11T21:06:37.589Z,77.20
2019-04-11T21:09:10.953Z,77.80
2019-04-11T21:11:41.482Z,77.90
2019-04-11T21:14:11.972Z,77.60
2019-04-11T21:16:42.460Z,78.00
2019-04-11T21:19:12.955Z,77.90
2019-04-11T21:21:43.416Z,78.10
2019-04-11T21:24:13.901Z,77.70
2019-04-11T21:26:44.400Z,77.60
2019-04-11T21:29:14.855Z,77.10
2019-04-11T21:31:45.345Z,77.30
2019-04-11T21:34:15.806Z,77.60
2019-04-11T21:36:46.301Z,77.10
2019-04-11T21:39:20.749Z,77.30
2019-04-11T21:41:51.301Z,77.30
2019-04-11T21:44:22.653Z,77.00
2019-04-11T21:46:53.138Z,77.70
2019-04-11T21:49:26.913Z,77.30
2019-04-11T21:51:58.078Z,77.10
2019-04-11T21:54:28.540Z,77.40
2019-04-11T21:57:02.020Z,76.80
2019-04-11T21:59:36.016Z,77.10
2019-04-11T22:02:09.944Z,77.20
2019-04-11T22:04:41.657Z,77.30
2019-04-11T22:07:12.230Z,77.00
2019-04-11T22:09:43.801Z,77.50
2019-04-11T22:12:17.012Z,77.50
2019-04-11T22:14:47.564Z,77.70
2019-04-11T22:17:21.035Z,79.10
2019-04-11T22:19:51.498Z,79.00
2019-04-11T22:22:21.978Z,77.60
2019-04-11T22:24:53.000Z,76.70
2019-04-11T22:27:24.641Z,77.70
2019-04-11T22:29:56.493Z,76.20
2019-04-11T22:32:31.959Z,76.20
2019-04-11T22:35:02.457Z,76.30
2019-04-11T22:37:34.471Z,76.60
2019-04-11T22:40:09.358Z,76.80
2019-04-11T22:42:42.786Z,76.60
2019-04-11T22:45:14.537Z,76.30
2019-04-11T22:47:46.769Z,76.10
2019-04-11T22:50:17.338Z,76.50
2019-04-11T22:52:49.181Z,76.60
2019-04-11T22:55:19.652Z,76.40
2019-04-11T22:57:52.513Z,76.10
2019-04-11T23:00:23.826Z,75.90
2019-04-11T23:02:56.496Z,76.10
2019-04-11T23:05:27.167Z,76.40
2019-04-11T23:08:02.757Z,76.90
2019-04-11T23:10:34.708Z,76.10
2019-04-11T23:13:05.263Z,75.80
2019-04-11T23:15:35.764Z,75.70
2019-04-11T23:18:06.219Z,75.80
2019-04-11T23:20:38.360Z,76.40
2019-04-11T23:23:11.084Z,76.40
2019-04-11T23:25:44.077Z,76.70
2019-04-11T23:28:15.861Z,76.00
2019-04-11T23:30:50.318Z,76.00
2019-04-11T23:33:21.421Z,75.80
2019-04-11T23:35:55.770Z,75.60
2019-04-11T23:38:27.955Z,75.20
2019-04-11T23:40:58.461Z,75.30
2019-04-11T23:43:28.927Z,75.30
2019-04-11T23:45:59.466Z,75.40
2019-04-11T23:48:32.745Z,75.50
2019-04-11T23:51:04.778Z,75.20
2019-04-11T23:53:35.343Z,75.60
2019-04-11T23:56:05.887Z,75.40
2019-04-11T23:58:37.853Z,75.50
